sensor_id;sensor_type;location;lat;lon;timestamp;P1;durP1;ratioP1;P2;durP2;ratioP2
71290;SDS011;59073;51.994;4.448;2023-03-09T00:01:43;14.89;;;14.61;;
71290;SDS011;59073;51.994;4.448;2023-03-09T00:04:13;14.98;;;14.71;;
71290;SDS011;59073;51.994;4.448;2023-03-09T00:06:41;14.54;;;14.38;;
71290;SDS011;59073;51.994;4.448;2023-03-09T00:09:07;14.19;;;13.91;;
71290;SDS011;59073;51.994;4.448;2023-03-09T00:11:33;13.93;;;13.73;;
71290;SDS011;59073;51.994;4.448;2023-03-09T00:13:59;14.25;;;13.96;;
71290;SDS011;59073;51.994;4.448;2023-03-09T00:16:27;14.60;;;14.26;;
71290;SDS011;59073;51.994;4.448;2023-03-09T00:18:54;14.21;;;13.79;;
71290;SDS011;59073;51.994;4.448;2023-03-09T00:21:24;13.93;;;13.60;;
71290;SDS011;59073;51.994;4.448;2023-03-09T00:24:13;13.92;;;13.75;;
71290;SDS011;59073;51.994;4.448;2023-03-09T00:26:42;13.61;;;13.48;;
71290;SDS011;59073;51.994;4.448;2023-03-09T00:29:13;13.83;;;13.79;;
71290;SDS011;59073;51.994;4.448;2023-03-09T00:31:39;13.45;;;13.22;;
71290;SDS011;59073;51.994;4.448;2023-03-09T00:34:05;13.38;;;13.25;;
71290;SDS011;59073;51.994;4.448;2023-03-09T00:36:31;13.16;;;12.98;;
71290;SDS011;59073;51.994;4.448;2023-03-09T00:38:57;13.16;;;13.00;;
71290;SDS011;59073;51.994;4.448;2023-03-09T00:41:24;14.15;;;13.81;;
71290;SDS011;59073;51.994;4.448;2023-03-09T00:43:52;14.24;;;13.91;;
71290;SDS011;59073;51.994;4.448;2023-03-09T00:46:18;14.01;;;13.66;;
71290;SDS011;59073;51.994;4.448;2023-03-09T00:48:44;13.85;;;13.70;;
71290;SDS011;59073;51.994;4.448;2023-03-09T00:51:10;13.98;;;13.73;;
71290;SDS011;59073;51.994;4.448;2023-03-09T00:53:37;14.30;;;14.00;;
71290;SDS011;59073;51.994;4.448;2023-03-09T00:56:04;14.50;;;14.19;;
71290;SDS011;59073;51.994;4.448;2023-03-09T00:58:32;13.64;;;13.27;;
71290;SDS011;59073;51.994;4.448;2023-03-09T01:00:57;13.16;;;12.96;;
71290;SDS011;59073;51.994;4.448;2023-03-09T01:03:23;13.37;;;13.17;;
71290;SDS011;59073;51.994;4.448;2023-03-09T01:05:49;13.88;;;13.47;;
71290;SDS011;59073;51.994;4.448;2023-03-09T01:08:15;13.52;;;13.22;;
71290;SDS011;59073;51.994;4.448;2023-03-09T01:10:41;14.52;;;14.17;;
71290;SDS011;59073;51.994;4.448;2023-03-09T01:13:07;15.11;;;14.76;;
71290;SDS011;59073;51.994;4.448;2023-03-09T01:15:35;14.21;;;14.01;;
71290;SDS011;59073;51.994;4.448;2023-03-09T01:18:00;14.24;;;14.07;;
71290;SDS011;59073;51.994;4.448;2023-03-09T01:20:25;15.64;;;15.14;;
71290;SDS011;59073;51.994;4.448;2023-03-09T01:22:51;14.73;;;14.16;;
71290;SDS011;59073;51.994;4.448;2023-03-09T01:25:16;14.50;;;13.93;;
71290;SDS011;59073;51.994;4.448;2023-03-09T01:27:42;14.17;;;13.65;;
71290;SDS011;59073;51.994;4.448;2023-03-09T01:30:09;13.44;;;13.23;;
71290;SDS011;59073;51.994;4.448;2023-03-09T01:32:36;13.56;;;13.28;;
71290;SDS011;59073;51.994;4.448;2023-03-09T01:35:01;13.59;;;13.28;;
71290;SDS011;59073;51.994;4.448;2023-03-09T01:37:28;13.17;;;12.87;;
71290;SDS011;59073;51.994;4.448;2023-03-09T01:39:54;12.83;;;12.53;;
71290;SDS011;59073;51.994;4.448;2023-03-09T01:42:19;12.49;;;12.20;;
71290;SDS011;59073;51.994;4.448;2023-03-09T01:44:45;12.40;;;12.05;;
71290;SDS011;59073;51.994;4.448;2023-03-09T01:47:10;11.83;;;11.54;;
71290;SDS011;59073;51.994;4.448;2023-03-09T01:49:43;12.29;;;11.82;;
71290;SDS011;59073;51.994;4.448;2023-03-09T01:52:20;11.38;;;11.05;;
71290;SDS011;59073;51.994;4.448;2023-03-09T01:54:58;10.85;;;10.67;;
71290;SDS011;59073;51.994;4.448;2023-03-09T01:57:41;10.05;;;9.92;;
71290;SDS011;59073;51.994;4.448;2023-03-09T02:00:14;10.46;;;10.26;;
71290;SDS011;59073;51.994;4.448;2023-03-09T02:02:45;10.81;;;10.61;;
71290;SDS011;59073;51.994;4.448;2023-03-09T02:05:17;10.92;;;10.75;;
71290;SDS011;59073;51.994;4.448;2023-03-09T02:07:49;10.02;;;9.95;;
71290;SDS011;59073;51.994;4.448;2023-03-09T02:10:22;10.81;;;10.74;;
71290;SDS011;59073;51.994;4.448;2023-03-09T02:12:57;9.81;;;9.69;;
71290;SDS011;59073;51.994;4.448;2023-03-09T02:15:26;10.45;;;10.17;;
71290;SDS011;59073;51.994;4.448;2023-03-09T02:17:52;9.67;;;9.51;;
71290;SDS011;59073;51.994;4.448;2023-03-09T02:23:15;9.28;;;9.17;;
71290;SDS011;59073;51.994;4.448;2023-03-09T02:26:08;9.10;;;8.97;;
71290;SDS011;59073;51.994;4.448;2023-03-09T02:28:42;10.05;;;9.83;;
71290;SDS011;59073;51.994;4.448;2023-03-09T02:31:08;9.87;;;9.74;;
71290;SDS011;59073;51.994;4.448;2023-03-09T02:33:38;9.20;;;9.06;;
71290;SDS011;59073;51.994;4.448;2023-03-09T02:36:03;8.90;;;8.78;;
71290;SDS011;59073;51.994;4.448;2023-03-09T02:38:29;8.59;;;8.43;;
71290;SDS011;59073;51.994;4.448;2023-03-09T02:40:56;8.27;;;8.08;;
71290;SDS011;59073;51.994;4.448;2023-03-09T02:43:24;8.27;;;8.17;;
71290;SDS011;59073;51.994;4.448;2023-03-09T02:46:07;7.92;;;7.83;;
71290;SDS011;59073;51.994;4.448;2023-03-09T02:48:33;8.31;;;8.13;;
71290;SDS011;59073;51.994;4.448;2023-03-09T02:50:58;8.46;;;8.31;;
71290;SDS011;59073;51.994;4.448;2023-03-09T02:53:24;7.86;;;7.83;;
71290;SDS011;59073;51.994;4.448;2023-03-09T02:55:49;7.99;;;7.88;;
71290;SDS011;59073;51.994;4.448;2023-03-09T02:58:15;8.36;;;8.23;;
71290;SDS011;59073;51.994;4.448;2023-03-09T03:00:40;8.14;;;7.98;;
71290;SDS011;59073;51.994;4.448;2023-03-09T03:03:06;7.64;;;7.43;;
71290;SDS011;59073;51.994;4.448;2023-03-09T03:05:31;7.15;;;7.01;;
71290;SDS011;59073;51.994;4.448;2023-03-09T03:07:56;7.75;;;7.61;;
71290;SDS011;59073;51.994;4.448;2023-03-09T03:10:22;7.47;;;7.36;;
71290;SDS011;59073;51.994;4.448;2023-03-09T03:12:47;7.83;;;7.68;;
71290;SDS011;59073;51.994;4.448;2023-03-09T03:15:13;7.94;;;7.79;;
71290;SDS011;59073;51.994;4.448;2023-03-09T03:17:38;8.11;;;7.98;;
71290;SDS011;59073;51.994;4.448;2023-03-09T03:20:04;7.70;;;7.62;;
71290;SDS011;59073;51.994;4.448;2023-03-09T03:22:36;7.44;;;7.36;;
71290;SDS011;59073;51.994;4.448;2023-03-09T03:25:01;7.81;;;7.70;;
71290;SDS011;59073;51.994;4.448;2023-03-09T03:27:27;8.38;;;8.21;;
71290;SDS011;59073;51.994;4.448;2023-03-09T03:29:52;7.83;;;7.71;;
71290;SDS011;59073;51.994;4.448;2023-03-09T03:32:18;7.85;;;7.80;;
71290;SDS011;59073;51.994;4.448;2023-03-09T03:34:43;8.04;;;7.95;;
71290;SDS011;59073;51.994;4.448;2023-03-09T03:37:08;8.09;;;7.93;;
71290;SDS011;59073;51.994;4.448;2023-03-09T03:39:35;8.40;;;8.27;;
71290;SDS011;59073;51.994;4.448;2023-03-09T03:42:00;8.54;;;8.38;;
71290;SDS011;59073;51.994;4.448;2023-03-09T03:44:26;8.50;;;8.31;;
71290;SDS011;59073;51.994;4.448;2023-03-09T03:46:52;8.40;;;8.34;;
71290;SDS011;59073;51.994;4.448;2023-03-09T03:49:17;8.49;;;8.42;;
71290;SDS011;59073;51.994;4.448;2023-03-09T03:51:43;8.45;;;8.31;;
71290;SDS011;59073;51.994;4.448;2023-03-09T03:54:08;8.68;;;8.55;;
71290;SDS011;59073;51.994;4.448;2023-03-09T03:56:33;8.99;;;8.83;;
71290;SDS011;59073;51.994;4.448;2023-03-09T03:58:59;8.50;;;8.27;;
71290;SDS011;59073;51.994;4.448;2023-03-09T04:01:25;8.97;;;8.71;;
71290;SDS011;59073;51.994;4.448;2023-03-09T04:03:50;9.40;;;9.07;;
71290;SDS011;59073;51.994;4.448;2023-03-09T04:06:15;8.99;;;8.75;;
71290;SDS011;59073;51.994;4.448;2023-03-09T04:08:41;8.95;;;8.76;;
71290;SDS011;59073;51.994;4.448;2023-03-09T04:11:07;8.63;;;8.40;;
71290;SDS011;59073;51.994;4.448;2023-03-09T04:13:33;8.65;;;8.48;;
71290;SDS011;59073;51.994;4.448;2023-03-09T04:15:58;8.48;;;8.32;;
71290;SDS011;59073;51.994;4.448;2023-03-09T04:18:24;8.72;;;8.51;;
71290;SDS011;59073;51.994;4.448;2023-03-09T04:20:49;8.72;;;8.50;;
71290;SDS011;59073;51.994;4.448;2023-03-09T04:23:15;8.81;;;8.61;;
71290;SDS011;59073;51.994;4.448;2023-03-09T04:25:40;8.62;;;8.43;;
71290;SDS011;59073;51.994;4.448;2023-03-09T04:28:06;8.67;;;8.52;;
71290;SDS011;59073;51.994;4.448;2023-03-09T04:30:31;8.36;;;8.15;;
71290;SDS011;59073;51.994;4.448;2023-03-09T04:32:56;8.92;;;8.70;;
71290;SDS011;59073;51.994;4.448;2023-03-09T04:35:22;9.00;;;8.84;;
71290;SDS011;59073;51.994;4.448;2023-03-09T04:37:48;8.45;;;8.29;;
71290;SDS011;59073;51.994;4.448;2023-03-09T04:40:14;8.28;;;8.14;;
71290;SDS011;59073;51.994;4.448;2023-03-09T04:42:40;8.76;;;8.63;;
71290;SDS011;59073;51.994;4.448;2023-03-09T04:45:05;8.56;;;8.42;;
71290;SDS011;59073;51.994;4.448;2023-03-09T04:47:32;8.89;;;8.65;;
71290;SDS011;59073;51.994;4.448;2023-03-09T04:49:57;9.17;;;8.86;;
71290;SDS011;59073;51.994;4.448;2023-03-09T04:52:23;8.92;;;8.71;;
71290;SDS011;59073;51.994;4.448;2023-03-09T04:54:48;8.41;;;8.20;;
71290;SDS011;59073;51.994;4.448;2023-03-09T04:57:14;8.75;;;8.51;;
71290;SDS011;59073;51.994;4.448;2023-03-09T04:59:39;8.90;;;8.72;;
71290;SDS011;59073;51.994;4.448;2023-03-09T05:02:05;8.98;;;8.74;;
71290;SDS011;59073;51.994;4.448;2023-03-09T05:04:31;9.00;;;8.76;;
71290;SDS011;59073;51.994;4.448;2023-03-09T05:06:57;8.88;;;8.64;;
71290;SDS011;59073;51.994;4.448;2023-03-09T05:09:22;9.86;;;9.58;;
71290;SDS011;59073;51.994;4.448;2023-03-09T05:11:48;9.84;;;9.57;;
71290;SDS011;59073;51.994;4.448;2023-03-09T05:14:18;10.04;;;9.77;;
71290;SDS011;59073;51.994;4.448;2023-03-09T05:16:44;9.77;;;9.56;;
71290;SDS011;59073;51.994;4.448;2023-03-09T05:19:10;9.57;;;9.40;;
71290;SDS011;59073;51.994;4.448;2023-03-09T05:21:36;10.25;;;9.97;;
71290;SDS011;59073;51.994;4.448;2023-03-09T05:24:02;9.72;;;9.64;;
71290;SDS011;59073;51.994;4.448;2023-03-09T05:26:28;9.38;;;9.24;;
71290;SDS011;59073;51.994;4.448;2023-03-09T05:28:54;8.96;;;8.87;;
71290;SDS011;59073;51.994;4.448;2023-03-09T05:31:19;9.17;;;9.06;;
71290;SDS011;59073;51.994;4.448;2023-03-09T05:33:45;9.81;;;9.73;;
71290;SDS011;59073;51.994;4.448;2023-03-09T05:36:18;10.19;;;9.99;;
71290;SDS011;59073;51.994;4.448;2023-03-09T05:38:46;9.68;;;9.54;;
71290;SDS011;59073;51.994;4.448;2023-03-09T05:41:13;10.02;;;9.85;;
71290;SDS011;59073;51.994;4.448;2023-03-09T05:43:39;10.15;;;9.92;;
71290;SDS011;59073;51.994;4.448;2023-03-09T05:46:07;10.10;;;9.76;;
71290;SDS011;59073;51.994;4.448;2023-03-09T05:48:42;9.91;;;9.48;;
71290;SDS011;59073;51.994;4.448;2023-03-09T05:51:10;10.35;;;10.08;;
71290;SDS011;59073;51.994;4.448;2023-03-09T05:53:36;9.99;;;9.87;;
71290;SDS011;59073;51.994;4.448;2023-03-09T05:56:03;10.17;;;9.93;;
71290;SDS011;59073;51.994;4.448;2023-03-09T05:58:29;10.46;;;10.21;;
71290;SDS011;59073;51.994;4.448;2023-03-09T06:00:54;10.56;;;10.40;;
71290;SDS011;59073;51.994;4.448;2023-03-09T06:03:21;10.35;;;10.14;;
71290;SDS011;59073;51.994;4.448;2023-03-09T06:05:47;10.89;;;10.72;;
71290;SDS011;59073;51.994;4.448;2023-03-09T06:08:12;11.86;;;11.50;;
71290;SDS011;59073;51.994;4.448;2023-03-09T06:10:39;11.62;;;11.22;;
71290;SDS011;59073;51.994;4.448;2023-03-09T06:13:05;11.70;;;11.31;;
71290;SDS011;59073;51.994;4.448;2023-03-09T06:15:30;12.04;;;11.61;;
71290;SDS011;59073;51.994;4.448;2023-03-09T06:17:57;11.63;;;11.44;;
71290;SDS011;59073;51.994;4.448;2023-03-09T06:20:23;11.78;;;11.48;;
71290;SDS011;59073;51.994;4.448;2023-03-09T06:22:48;12.08;;;11.81;;
71290;SDS011;59073;51.994;4.448;2023-03-09T06:25:13;13.13;;;12.71;;
71290;SDS011;59073;51.994;4.448;2023-03-09T06:27:39;12.73;;;12.24;;
71290;SDS011;59073;51.994;4.448;2023-03-09T06:30:05;11.92;;;11.54;;
71290;SDS011;59073;51.994;4.448;2023-03-09T06:32:31;12.00;;;11.64;;
71290;SDS011;59073;51.994;4.448;2023-03-09T06:34:58;11.96;;;11.64;;
71290;SDS011;59073;51.994;4.448;2023-03-09T06:37:24;11.85;;;11.57;;
71290;SDS011;59073;51.994;4.448;2023-03-09T06:39:50;12.30;;;11.93;;
71290;SDS011;59073;51.994;4.448;2023-03-09T06:42:15;11.80;;;11.63;;
71290;SDS011;59073;51.994;4.448;2023-03-09T06:44:41;11.51;;;11.29;;
71290;SDS011;59073;51.994;4.448;2023-03-09T06:47:08;12.19;;;11.85;;
71290;SDS011;59073;51.994;4.448;2023-03-09T06:49:34;12.28;;;11.87;;
71290;SDS011;59073;51.994;4.448;2023-03-09T06:52:00;12.46;;;12.10;;
71290;SDS011;59073;51.994;4.448;2023-03-09T06:54:25;12.42;;;12.24;;
71290;SDS011;59073;51.994;4.448;2023-03-09T06:56:51;12.56;;;12.24;;
71290;SDS011;59073;51.994;4.448;2023-03-09T06:59:17;11.79;;;11.60;;
71290;SDS011;59073;51.994;4.448;2023-03-09T07:01:43;12.48;;;12.11;;
71290;SDS011;59073;51.994;4.448;2023-03-09T07:04:08;13.08;;;12.67;;
71290;SDS011;59073;51.994;4.448;2023-03-09T07:06:33;12.89;;;12.43;;
71290;SDS011;59073;51.994;4.448;2023-03-09T07:08:59;13.69;;;13.27;;
71290;SDS011;59073;51.994;4.448;2023-03-09T07:11:24;13.26;;;12.93;;
71290;SDS011;59073;51.994;4.448;2023-03-09T07:13:50;13.57;;;13.18;;
71290;SDS011;59073;51.994;4.448;2023-03-09T07:16:15;13.61;;;13.34;;
71290;SDS011;59073;51.994;4.448;2023-03-09T07:18:41;14.13;;;13.56;;
71290;SDS011;59073;51.994;4.448;2023-03-09T07:21:08;14.85;;;14.32;;
71290;SDS011;59073;51.994;4.448;2023-03-09T07:23:34;14.85;;;14.38;;
71290;SDS011;59073;51.994;4.448;2023-03-09T07:26:01;14.29;;;13.86;;
71290;SDS011;59073;51.994;4.448;2023-03-09T07:28:28;14.37;;;13.79;;
71290;SDS011;59073;51.994;4.448;2023-03-09T07:30:54;14.35;;;13.90;;
71290;SDS011;59073;51.994;4.448;2023-03-09T07:33:20;14.01;;;13.72;;
71290;SDS011;59073;51.994;4.448;2023-03-09T07:35:45;14.36;;;13.93;;
71290;SDS011;59073;51.994;4.448;2023-03-09T07:38:11;14.49;;;14.03;;
71290;SDS011;59073;51.994;4.448;2023-03-09T07:40:36;15.16;;;14.59;;
71290;SDS011;59073;51.994;4.448;2023-03-09T07:43:02;14.77;;;14.38;;
71290;SDS011;59073;51.994;4.448;2023-03-09T07:45:28;14.60;;;14.29;;
71290;SDS011;59073;51.994;4.448;2023-03-09T07:47:53;14.69;;;14.12;;
71290;SDS011;59073;51.994;4.448;2023-03-09T07:50:19;14.21;;;13.50;;
71290;SDS011;59073;51.994;4.448;2023-03-09T07:52:45;14.79;;;14.19;;
71290;SDS011;59073;51.994;4.448;2023-03-09T07:55:11;14.87;;;14.40;;
71290;SDS011;59073;51.994;4.448;2023-03-09T07:57:39;15.19;;;14.67;;
71290;SDS011;59073;51.994;4.448;2023-03-09T08:00:06;15.19;;;14.53;;
71290;SDS011;59073;51.994;4.448;2023-03-09T08:02:37;14.82;;;14.46;;
71290;SDS011;59073;51.994;4.448;2023-03-09T08:05:05;14.65;;;14.22;;
71290;SDS011;59073;51.994;4.448;2023-03-09T08:07:34;15.32;;;14.54;;
71290;SDS011;59073;51.994;4.448;2023-03-09T08:10:00;15.29;;;14.68;;
71290;SDS011;59073;51.994;4.448;2023-03-09T08:12:25;15.14;;;14.56;;
71290;SDS011;59073;51.994;4.448;2023-03-09T08:14:51;15.70;;;15.00;;
71290;SDS011;59073;51.994;4.448;2023-03-09T08:17:16;15.40;;;14.79;;
71290;SDS011;59073;51.994;4.448;2023-03-09T08:19:45;14.99;;;14.46;;
71290;SDS011;59073;51.994;4.448;2023-03-09T08:22:11;14.99;;;14.44;;
71290;SDS011;59073;51.994;4.448;2023-03-09T08:24:36;15.51;;;15.16;;
71290;SDS011;59073;51.994;4.448;2023-03-09T08:27:02;15.76;;;15.38;;
71290;SDS011;59073;51.994;4.448;2023-03-09T08:29:28;15.26;;;14.94;;
71290;SDS011;59073;51.994;4.448;2023-03-09T08:31:53;15.96;;;15.50;;
71290;SDS011;59073;51.994;4.448;2023-03-09T08:34:19;15.62;;;15.26;;
71290;SDS011;59073;51.994;4.448;2023-03-09T08:36:45;16.50;;;15.61;;
71290;SDS011;59073;51.994;4.448;2023-03-09T08:39:10;16.52;;;15.81;;
71290;SDS011;59073;51.994;4.448;2023-03-09T08:41:36;16.00;;;15.61;;
71290;SDS011;59073;51.994;4.448;2023-03-09T08:44:01;15.34;;;14.93;;
71290;SDS011;59073;51.994;4.448;2023-03-09T08:46:27;15.58;;;15.21;;
71290;SDS011;59073;51.994;4.448;2023-03-09T08:48:53;15.33;;;14.91;;
71290;SDS011;59073;51.994;4.448;2023-03-09T08:51:19;15.00;;;14.40;;
71290;SDS011;59073;51.994;4.448;2023-03-09T08:53:45;15.93;;;15.47;;
71290;SDS011;59073;51.994;4.448;2023-03-09T08:56:11;16.57;;;15.85;;
71290;SDS011;59073;51.994;4.448;2023-03-09T08:58:37;16.57;;;16.04;;
71290;SDS011;59073;51.994;4.448;2023-03-09T09:01:04;15.91;;;15.31;;
71290;SDS011;59073;51.994;4.448;2023-03-09T09:03:33;16.25;;;15.55;;
71290;SDS011;59073;51.994;4.448;2023-03-09T09:06:03;15.89;;;15.49;;
71290;SDS011;59073;51.994;4.448;2023-03-09T09:08:31;15.56;;;15.20;;
71290;SDS011;59073;51.994;4.448;2023-03-09T09:10:56;15.55;;;14.89;;
71290;SDS011;59073;51.994;4.448;2023-03-09T09:13:24;15.04;;;14.47;;
71290;SDS011;59073;51.994;4.448;2023-03-09T09:15:53;15.73;;;15.27;;
71290;SDS011;59073;51.994;4.448;2023-03-09T09:18:19;15.52;;;15.04;;
71290;SDS011;59073;51.994;4.448;2023-03-09T09:20:46;15.80;;;15.30;;
71290;SDS011;59073;51.994;4.448;2023-03-09T09:23:11;15.80;;;15.32;;
71290;SDS011;59073;51.994;4.448;2023-03-09T09:25:36;15.51;;;14.95;;
71290;SDS011;59073;51.994;4.448;2023-03-09T09:28:02;16.45;;;15.72;;
71290;SDS011;59073;51.994;4.448;2023-03-09T09:30:28;14.94;;;14.35;;
71290;SDS011;59073;51.994;4.448;2023-03-09T09:32:57;16.29;;;15.77;;
71290;SDS011;59073;51.994;4.448;2023-03-09T09:35:23;17.44;;;16.33;;
71290;SDS011;59073;51.994;4.448;2023-03-09T09:37:49;16.13;;;15.51;;
71290;SDS011;59073;51.994;4.448;2023-03-09T09:40:14;15.77;;;15.30;;
71290;SDS011;59073;51.994;4.448;2023-03-09T09:42:41;14.69;;;14.36;;
71290;SDS011;59073;51.994;4.448;2023-03-09T09:45:28;15.97;;;15.34;;
71290;SDS011;59073;51.994;4.448;2023-03-09T09:47:57;16.18;;;15.32;;
71290;SDS011;59073;51.994;4.448;2023-03-09T09:50:29;16.46;;;15.80;;
71290;SDS011;59073;51.994;4.448;2023-03-09T09:53:12;15.24;;;14.79;;
71290;SDS011;59073;51.994;4.448;2023-03-09T09:55:51;15.99;;;15.34;;
71290;SDS011;59073;51.994;4.448;2023-03-09T09:58:22;15.21;;;14.70;;
71290;SDS011;59073;51.994;4.448;2023-03-09T10:01:14;14.87;;;14.32;;
71290;SDS011;59073;51.994;4.448;2023-03-09T10:03:49;16.16;;;15.48;;
71290;SDS011;59073;51.994;4.448;2023-03-09T10:06:19;15.59;;;14.86;;
71290;SDS011;59073;51.994;4.448;2023-03-09T10:14:31;16.64;;;15.86;;
71290;SDS011;59073;51.994;4.448;2023-03-09T10:17:08;16.03;;;15.19;;
71290;SDS011;59073;51.994;4.448;2023-03-09T10:19:51;15.91;;;15.34;;
71290;SDS011;59073;51.994;4.448;2023-03-09T10:22:17;15.87;;;15.21;;
71290;SDS011;59073;51.994;4.448;2023-03-09T10:24:50;16.43;;;15.92;;
71290;SDS011;59073;51.994;4.448;2023-03-09T10:27:22;15.33;;;14.90;;
71290;SDS011;59073;51.994;4.448;2023-03-09T10:29:58;16.09;;;15.55;;
71290;SDS011;59073;51.994;4.448;2023-03-09T10:32:33;15.36;;;14.90;;
71290;SDS011;59073;51.994;4.448;2023-03-09T10:37:46;17.27;;;16.51;;
71290;SDS011;59073;51.994;4.448;2023-03-09T10:40:22;16.18;;;15.60;;
71290;SDS011;59073;51.994;4.448;2023-03-09T10:42:50;16.37;;;15.87;;
71290;SDS011;59073;51.994;4.448;2023-03-09T10:45:27;16.21;;;15.62;;
71290;SDS011;59073;51.994;4.448;2023-03-09T10:48:02;16.43;;;15.64;;
71290;SDS011;59073;51.994;4.448;2023-03-09T10:50:33;17.42;;;16.69;;
71290;SDS011;59073;51.994;4.448;2023-03-09T10:56:11;17.55;;;16.48;;
71290;SDS011;59073;51.994;4.448;2023-03-09T10:58:40;16.29;;;15.57;;
71290;SDS011;59073;51.994;4.448;2023-03-09T11:01:24;17.48;;;16.52;;
71290;SDS011;59073;51.994;4.448;2023-03-09T11:03:51;16.45;;;15.58;;
71290;SDS011;59073;51.994;4.448;2023-03-09T11:06:24;17.35;;;16.29;;
71290;SDS011;59073;51.994;4.448;2023-03-09T11:09:01;16.44;;;15.91;;
71290;SDS011;59073;51.994;4.448;2023-03-09T11:11:37;17.76;;;17.16;;
71290;SDS011;59073;51.994;4.448;2023-03-09T11:14:15;18.15;;;17.15;;
71290;SDS011;59073;51.994;4.448;2023-03-09T11:16:51;18.26;;;17.28;;
71290;SDS011;59073;51.994;4.448;2023-03-09T11:19:18;16.85;;;16.06;;
71290;SDS011;59073;51.994;4.448;2023-03-09T11:21:51;16.68;;;16.10;;
71290;SDS011;59073;51.994;4.448;2023-03-09T11:24:30;17.78;;;16.87;;
71290;SDS011;59073;51.994;4.448;2023-03-09T11:27:12;16.71;;;16.05;;
71290;SDS011;59073;51.994;4.448;2023-03-09T11:32:26;16.63;;;15.96;;
71290;SDS011;59073;51.994;4.448;2023-03-09T11:34:52;16.77;;;16.07;;
71290;SDS011;59073;51.994;4.448;2023-03-09T11:37:30;16.49;;;15.54;;
71290;SDS011;59073;51.994;4.448;2023-03-09T11:42:43;17.09;;;16.32;;
71290;SDS011;59073;51.994;4.448;2023-03-09T11:45:27;16.84;;;16.09;;
71290;SDS011;59073;51.994;4.448;2023-03-09T11:56:44;18.86;;;18.05;;
71290;SDS011;59073;51.994;4.448;2023-03-09T12:02:17;17.35;;;16.75;;
71290;SDS011;59073;51.994;4.448;2023-03-09T12:04:51;17.48;;;16.33;;
71290;SDS011;59073;51.994;4.448;2023-03-09T12:07:35;18.76;;;17.76;;
71290;SDS011;59073;51.994;4.448;2023-03-09T12:10:11;17.97;;;16.94;;
71290;SDS011;59073;51.994;4.448;2023-03-09T12:18:21;18.72;;;17.72;;
71290;SDS011;59073;51.994;4.448;2023-03-09T12:20:55;17.93;;;17.04;;
71290;SDS011;59073;51.994;4.448;2023-03-09T12:23:57;18.41;;;17.30;;
71290;SDS011;59073;51.994;4.448;2023-03-09T12:26:26;17.89;;;17.19;;
71290;SDS011;59073;51.994;4.448;2023-03-09T12:28:56;18.73;;;17.87;;
71290;SDS011;59073;51.994;4.448;2023-03-09T12:31:29;19.31;;;18.30;;
71290;SDS011;59073;51.994;4.448;2023-03-09T12:36:23;20.31;;;19.02;;
71290;SDS011;59073;51.994;4.448;2023-03-09T12:41:54;19.35;;;18.05;;
71290;SDS011;59073;51.994;4.448;2023-03-09T12:50:55;19.99;;;18.72;;
71290;SDS011;59073;51.994;4.448;2023-03-09T13:01:11;18.44;;;17.41;;
71290;SDS011;59073;51.994;4.448;2023-03-09T13:06:42;18.35;;;17.29;;
71290;SDS011;59073;51.994;4.448;2023-03-09T13:09:21;20.07;;;18.85;;
71290;SDS011;59073;51.994;4.448;2023-03-09T13:16:53;17.53;;;16.76;;
71290;SDS011;59073;51.994;4.448;2023-03-09T13:24:27;17.17;;;16.31;;
71290;SDS011;59073;51.994;4.448;2023-03-09T13:29:47;20.03;;;18.66;;
71290;SDS011;59073;51.994;4.448;2023-03-09T13:32:21;18.54;;;17.42;;
71290;SDS011;59073;51.994;4.448;2023-03-09T13:34:52;19.63;;;18.06;;
71290;SDS011;59073;51.994;4.448;2023-03-09T13:37:20;17.54;;;16.66;;
71290;SDS011;59073;51.994;4.448;2023-03-09T13:40:03;16.51;;;15.48;;
71290;SDS011;59073;51.994;4.448;2023-03-09T13:42:31;15.99;;;15.12;;
71290;SDS011;59073;51.994;4.448;2023-03-09T13:45:01;14.98;;;14.27;;
71290;SDS011;59073;51.994;4.448;2023-03-09T13:47:29;16.34;;;15.50;;
71290;SDS011;59073;51.994;4.448;2023-03-09T13:49:58;15.92;;;15.08;;
71290;SDS011;59073;51.994;4.448;2023-03-09T13:52:24;15.22;;;14.37;;
71290;SDS011;59073;51.994;4.448;2023-03-09T13:54:53;14.57;;;14.02;;
71290;SDS011;59073;51.994;4.448;2023-03-09T13:59:58;13.56;;;13.06;;
71290;SDS011;59073;51.994;4.448;2023-03-09T14:02:30;14.01;;;13.53;;
71290;SDS011;59073;51.994;4.448;2023-03-09T14:07:24;13.37;;;13.03;;
71290;SDS011;59073;51.994;4.448;2023-03-09T14:09:55;13.08;;;12.73;;
71290;SDS011;59073;51.994;4.448;2023-03-09T14:12:30;13.19;;;12.62;;
71290;SDS011;59073;51.994;4.448;2023-03-09T14:15:04;13.34;;;12.92;;
71290;SDS011;59073;51.994;4.448;2023-03-09T14:17:39;12.90;;;12.56;;
71290;SDS011;59073;51.994;4.448;2023-03-09T14:20:06;13.57;;;13.32;;
71290;SDS011;59073;51.994;4.448;2023-03-09T14:22:48;13.74;;;13.17;;
71290;SDS011;59073;51.994;4.448;2023-03-09T14:27:49;14.80;;;13.88;;
71290;SDS011;59073;51.994;4.448;2023-03-09T14:33:11;13.74;;;13.29;;
71290;SDS011;59073;51.994;4.448;2023-03-09T14:36:05;13.85;;;13.34;;
71290;SDS011;59073;51.994;4.448;2023-03-09T14:38:57;13.84;;;13.29;;
71290;SDS011;59073;51.994;4.448;2023-03-09T14:41:26;13.79;;;13.14;;
71290;SDS011;59073;51.994;4.448;2023-03-09T14:43:54;13.88;;;13.23;;
71290;SDS011;59073;51.994;4.448;2023-03-09T14:46:21;14.50;;;13.72;;
71290;SDS011;59073;51.994;4.448;2023-03-09T14:48:52;14.92;;;14.24;;
71290;SDS011;59073;51.994;4.448;2023-03-09T14:51:23;15.20;;;14.48;;
71290;SDS011;59073;51.994;4.448;2023-03-09T14:56:28;14.34;;;13.74;;
71290;SDS011;59073;51.994;4.448;2023-03-09T14:58:56;14.35;;;13.76;;
71290;SDS011;59073;51.994;4.448;2023-03-09T15:01:26;14.79;;;14.14;;
71290;SDS011;59073;51.994;4.448;2023-03-09T15:03:54;14.91;;;14.27;;
71290;SDS011;59073;51.994;4.448;2023-03-09T15:06:19;13.85;;;13.42;;
71290;SDS011;59073;51.994;4.448;2023-03-09T15:08:46;13.99;;;13.48;;
71290;SDS011;59073;51.994;4.448;2023-03-09T15:11:12;15.06;;;14.49;;
71290;SDS011;59073;51.994;4.448;2023-03-09T15:13:37;14.45;;;13.87;;
71290;SDS011;59073;51.994;4.448;2023-03-09T15:16:04;14.95;;;14.32;;
71290;SDS011;59073;51.994;4.448;2023-03-09T15:18:29;12.72;;;12.45;;
71290;SDS011;59073;51.994;4.448;2023-03-09T15:20:55;13.49;;;13.14;;
71290;SDS011;59073;51.994;4.448;2023-03-09T15:23:20;14.72;;;13.91;;
71290;SDS011;59073;51.994;4.448;2023-03-09T15:25:45;13.50;;;12.99;;
71290;SDS011;59073;51.994;4.448;2023-03-09T15:28:12;14.39;;;13.61;;
71290;SDS011;59073;51.994;4.448;2023-03-09T15:30:38;13.77;;;13.12;;
71290;SDS011;59073;51.994;4.448;2023-03-09T15:33:04;12.26;;;11.92;;
71290;SDS011;59073;51.994;4.448;2023-03-09T15:35:29;12.54;;;12.00;;
71290;SDS011;59073;51.994;4.448;2023-03-09T15:37:55;11.71;;;11.10;;
71290;SDS011;59073;51.994;4.448;2023-03-09T15:40:20;11.69;;;11.27;;
71290;SDS011;59073;51.994;4.448;2023-03-09T15:42:46;11.80;;;11.50;;
71290;SDS011;59073;51.994;4.448;2023-03-09T15:45:12;12.28;;;11.96;;
71290;SDS011;59073;51.994;4.448;2023-03-09T15:47:39;11.92;;;11.50;;
71290;SDS011;59073;51.994;4.448;2023-03-09T15:50:05;10.88;;;10.57;;
71290;SDS011;59073;51.994;4.448;2023-03-09T15:52:33;11.59;;;11.12;;
71290;SDS011;59073;51.994;4.448;2023-03-09T15:55:00;11.00;;;10.70;;
71290;SDS011;59073;51.994;4.448;2023-03-09T15:57:26;10.08;;;9.70;;
71290;SDS011;59073;51.994;4.448;2023-03-09T15:59:54;10.45;;;10.11;;
71290;SDS011;59073;51.994;4.448;2023-03-09T16:02:20;10.48;;;10.21;;